sensor_id;sensor_type;location;lat;lon;timestamp;pressure;altitude;pressure_sealevel;temperature;humidity
28267;BME280;15525;45.568;5.448;2022-10-23T00:00:28;98034.25;;;19.54;59.48
28267;BME280;15525;45.568;5.448;2022-10-23T00:02:54;98041.91;;;19.61;59.26
28267;BME280;15525;45.568;5.448;2022-10-23T00:05:21;98037.47;;;19.48;59.34
28267;BME280;15525;45.568;5.448;2022-10-23T00:07:54;98035.88;;;19.55;59.54
28267;BME280;15525;45.568;5.448;2022-10-23T00:10:20;98025.66;;;19.52;59.13
28267;BME280;15525;45.568;5.448;2022-10-23T00:12:47;98036.03;;;19.50;59.38
28267;BME280;15525;45.568;5.448;2022-10-23T00:15:13;98025.59;;;19.32;59.61
28267;BME280;15525;45.568;5.448;2022-10-23T00:17:39;98032.59;;;19.33;59.64
28267;BME280;15525;45.568;5.448;2022-10-23T00:20:06;98019.06;;;19.24;59.68
28267;BME280;15525;45.568;5.448;2022-10-23T00:22:32;98017.16;;;19.16;59.81
28267;BME280;15525;45.568;5.448;2022-10-23T00:24:57;98017.50;;;19.23;59.89
28267;BME280;15525;45.568;5.448;2022-10-23T00:27:23;98030.53;;;19.21;59.81
28267;BME280;15525;45.568;5.448;2022-10-23T00:29:49;98020.31;;;19.18;60.09
28267;BME280;15525;45.568;5.448;2022-10-23T00:32:14;98024.31;;;19.29;59.77
28267;BME280;15525;45.568;5.448;2022-10-23T00:34:39;98023.00;;;19.35;59.26
28267;BME280;15525;45.568;5.448;2022-10-23T00:37:05;98027.53;;;19.23;59.66
28267;BME280;15525;45.568;5.448;2022-10-23T00:39:30;98013.06;;;18.93;60.36
28267;BME280;15525;45.568;5.448;2022-10-23T00:41:56;98013.06;;;18.93;60.29
28267;BME280;15525;45.568;5.448;2022-10-23T00:46:47;98016.22;;;19.12;60.16
28267;BME280;15525;45.568;5.448;2022-10-23T00:49:13;98007.25;;;19.20;59.75
28267;BME280;15525;45.568;5.448;2022-10-23T00:51:51;98002.63;;;19.12;60.17
28267;BME280;15525;45.568;5.448;2022-10-23T00:54:20;97996.56;;;19.15;60.11
28267;BME280;15525;45.568;5.448;2022-10-23T00:56:48;98002.31;;;19.22;59.90
28267;BME280;15525;45.568;5.448;2022-10-23T00:59:14;98002.63;;;19.21;59.85
28267;BME280;15525;45.568;5.448;2022-10-23T01:01:40;97992.09;;;19.19;59.85
28267;BME280;15525;45.568;5.448;2022-10-23T01:04:06;97991.09;;;19.32;59.74
28267;BME280;15525;45.568;5.448;2022-10-23T01:09:33;98005.75;;;19.40;59.73
28267;BME280;15525;45.568;5.448;2022-10-23T01:17:35;97984.69;;;19.37;59.92
28267;BME280;15525;45.568;5.448;2022-10-23T01:20:13;97984.88;;;19.32;59.74
28267;BME280;15525;45.568;5.448;2022-10-23T01:28:49;97995.41;;;19.33;59.59
28267;BME280;15525;45.568;5.448;2022-10-23T01:31:22;97998.13;;;19.33;59.53
28267;BME280;15525;45.568;5.448;2022-10-23T01:33:56;97986.97;;;19.26;59.57
28267;BME280;15525;45.568;5.448;2022-10-23T01:36:27;98001.66;;;19.25;59.74
28267;BME280;15525;45.568;5.448;2022-10-23T01:41:32;98003.38;;;19.30;60.21
28267;BME280;15525;45.568;5.448;2022-10-23T01:44:03;98002.94;;;19.28;59.88
28267;BME280;15525;45.568;5.448;2022-10-23T01:46:30;97986.34;;;19.12;60.13
28267;BME280;15525;45.568;5.448;2022-10-23T01:48:57;97990.44;;;18.89;60.74
28267;BME280;15525;45.568;5.448;2022-10-23T01:51:26;97968.69;;;18.98;60.49
28267;BME280;15525;45.568;5.448;2022-10-23T01:53:56;97985.09;;;19.10;60.38
28267;BME280;15525;45.568;5.448;2022-10-23T01:56:28;97979.66;;;19.10;60.35
28267;BME280;15525;45.568;5.448;2022-10-23T01:58:57;97970.38;;;19.11;60.18
28267;BME280;15525;45.568;5.448;2022-10-23T02:01:28;97975.50;;;19.12;60.37
28267;BME280;15525;45.568;5.448;2022-10-23T02:03:55;97935.03;;;18.99;60.34
28267;BME280;15525;45.568;5.448;2022-10-23T02:06:21;97957.00;;;19.06;60.32
28267;BME280;15525;45.568;5.448;2022-10-23T02:08:46;97937.69;;;19.07;60.29
28267;BME280;15525;45.568;5.448;2022-10-23T02:11:14;97942.97;;;19.04;60.57
28267;BME280;15525;45.568;5.448;2022-10-23T02:13:46;97940.13;;;19.00;60.79
28267;BME280;15525;45.568;5.448;2022-10-23T02:19:14;97939.66;;;18.98;60.72
28267;BME280;15525;45.568;5.448;2022-10-23T02:24:12;97929.03;;;18.85;60.71
28267;BME280;15525;45.568;5.448;2022-10-23T02:26:42;97922.78;;;18.84;60.75
28267;BME280;15525;45.568;5.448;2022-10-23T02:29:30;97937.75;;;18.90;60.65
28267;BME280;15525;45.568;5.448;2022-10-23T02:31:57;97925.81;;;18.91;60.61
28267;BME280;15525;45.568;5.448;2022-10-23T02:34:23;97920.66;;;18.98;60.36
28267;BME280;15525;45.568;5.448;2022-10-23T02:36:49;97912.50;;;18.98;60.54
28267;BME280;15525;45.568;5.448;2022-10-23T02:39:14;97904.38;;;18.98;60.32
28267;BME280;15525;45.568;5.448;2022-10-23T02:41:46;97899.13;;;18.93;60.56
28267;BME280;15525;45.568;5.448;2022-10-23T02:44:27;97915.88;;;18.95;60.27
28267;BME280;15525;45.568;5.448;2022-10-23T02:49:59;97892.06;;;19.01;60.42
28267;BME280;15525;45.568;5.448;2022-10-23T02:58:14;97904.88;;;19.00;60.64
28267;BME280;15525;45.568;5.448;2022-10-23T03:00:49;97910.75;;;19.02;60.58
28267;BME280;15525;45.568;5.448;2022-10-23T03:03:21;97913.59;;;19.06;60.72
28267;BME280;15525;45.568;5.448;2022-10-23T03:05:48;97892.78;;;18.89;60.59
28267;BME280;15525;45.568;5.448;2022-10-23T03:08:14;97910.13;;;18.97;60.75
28267;BME280;15525;45.568;5.448;2022-10-23T03:10:40;97901.41;;;18.91;60.70
28267;BME280;15525;45.568;5.448;2022-10-23T03:13:06;97904.56;;;18.93;60.71
28267;BME280;15525;45.568;5.448;2022-10-23T03:15:32;97898.38;;;18.84;61.12
28267;BME280;15525;45.568;5.448;2022-10-23T03:17:57;97898.38;;;18.84;61.01
28267;BME280;15525;45.568;5.448;2022-10-23T03:20:23;97874.91;;;18.88;60.71
28267;BME280;15525;45.568;5.448;2022-10-23T03:22:48;97881.72;;;18.94;60.82
28267;BME280;15525;45.568;5.448;2022-10-23T03:25:14;97881.72;;;18.94;60.69
28267;BME280;15525;45.568;5.448;2022-10-23T03:27:39;97895.59;;;19.01;60.42
28267;BME280;15525;45.568;5.448;2022-10-23T03:30:06;97904.88;;;19.00;60.49
28267;BME280;15525;45.568;5.448;2022-10-23T03:32:31;97895.44;;;18.98;60.53
28267;BME280;15525;45.568;5.448;2022-10-23T03:34:57;97882.34;;;19.00;60.33
28267;BME280;15525;45.568;5.448;2022-10-23T03:37:22;97899.44;;;19.00;60.49
28267;BME280;15525;45.568;5.448;2022-10-23T03:39:48;97892.06;;;19.01;60.53
28267;BME280;15525;45.568;5.448;2022-10-23T03:42:13;97894.00;;;19.00;60.47
28267;BME280;15525;45.568;5.448;2022-10-23T03:44:39;97897.19;;;19.02;60.45
28267;BME280;15525;45.568;5.448;2022-10-23T03:47:04;97892.56;;;19.03;60.25
28267;BME280;15525;45.568;5.448;2022-10-23T03:49:30;97886.19;;;18.99;60.53
28267;BME280;15525;45.568;5.448;2022-10-23T03:51:55;97884.25;;;18.99;60.48
28267;BME280;15525;45.568;5.448;2022-10-23T03:54:23;97894.97;;;18.96;60.77
28267;BME280;15525;45.568;5.448;2022-10-23T03:56:49;97887.16;;;18.94;60.60
28267;BME280;15525;45.568;5.448;2022-10-23T03:59:16;97892.13;;;18.92;60.87
28267;BME280;15525;45.568;5.448;2022-10-23T04:01:41;97883.56;;;18.82;60.70
28267;BME280;15525;45.568;5.448;2022-10-23T04:04:07;97889.91;;;18.86;60.62
28267;BME280;15525;45.568;5.448;2022-10-23T04:06:32;97894.09;;;18.83;60.90
28267;BME280;15525;45.568;5.448;2022-10-23T04:08:58;97904.75;;;18.88;60.71
28267;BME280;15525;45.568;5.448;2022-10-23T04:11:23;97898.06;;;18.86;60.85
28267;BME280;15525;45.568;5.448;2022-10-23T04:13:48;97897.88;;;18.91;60.71
28267;BME280;15525;45.568;5.448;2022-10-23T04:16:14;97878.94;;;18.82;60.82
28267;BME280;15525;45.568;5.448;2022-10-23T04:18:40;97888.66;;;18.83;61.33
28267;BME280;15525;45.568;5.448;2022-10-23T04:21:06;97882.09;;;18.84;60.99
28267;BME280;15525;45.568;5.448;2022-10-23T04:23:31;97903.19;;;18.79;61.15
28267;BME280;15525;45.568;5.448;2022-10-23T04:25:57;97893.28;;;18.83;60.99
28267;BME280;15525;45.568;5.448;2022-10-23T04:28:23;97894.53;;;18.85;60.89
28267;BME280;15525;45.568;5.448;2022-10-23T04:30:48;97898.56;;;18.79;61.16
28267;BME280;15525;45.568;5.448;2022-10-23T04:33:14;97907.47;;;18.88;60.98
28267;BME280;15525;45.568;5.448;2022-10-23T04:35:39;97901.72;;;18.81;61.05
28267;BME280;15525;45.568;5.448;2022-10-23T04:38:05;97891.22;;;18.80;60.97
28267;BME280;15525;45.568;5.448;2022-10-23T04:40:30;97902.22;;;18.83;61.12
28267;BME280;15525;45.568;5.448;2022-10-23T04:42:55;97900.59;;;18.91;60.76
28267;BME280;15525;45.568;5.448;2022-10-23T04:45:21;97899.13;;;18.93;60.70
28267;BME280;15525;45.568;5.448;2022-10-23T04:47:46;97893.91;;;18.88;61.09
28267;BME280;15525;45.568;5.448;2022-10-23T04:50:12;97899.75;;;18.99;60.72
28267;BME280;15525;45.568;5.448;2022-10-23T04:52:37;97900.84;;;18.98;60.66
28267;BME280;15525;45.568;5.448;2022-10-23T04:55:03;97896.56;;;18.97;60.55
28267;BME280;15525;45.568;5.448;2022-10-23T04:57:28;97892.88;;;19.01;60.56
28267;BME280;15525;45.568;5.448;2022-10-23T04:59:54;97887.66;;;18.96;60.57
28267;BME280;15525;45.568;5.448;2022-10-23T05:02:19;97888.41;;;18.97;60.57
28267;BME280;15525;45.568;5.448;2022-10-23T05:04:45;97886.50;;;18.97;60.69
28267;BME280;15525;45.568;5.448;2022-10-23T05:07:10;97888.59;;;19.00;60.55
28267;BME280;15525;45.568;5.448;2022-10-23T05:09:35;97883.47;;;18.99;60.65
28267;BME280;15525;45.568;5.448;2022-10-23T05:12:01;97893.72;;;18.93;61.04
28267;BME280;15525;45.568;5.448;2022-10-23T05:14:26;97889.88;;;18.94;60.78
28267;BME280;15525;45.568;5.448;2022-10-23T05:17:23;97913.84;;;19.21;60.63
28267;BME280;15525;45.568;5.448;2022-10-23T05:19:55;97910.38;;;19.12;60.43
28267;BME280;15525;45.568;5.448;2022-10-23T05:22:24;97910.09;;;19.05;60.55
28267;BME280;15525;45.568;5.448;2022-10-23T05:24:51;97913.13;;;19.04;60.84
28267;BME280;15525;45.568;5.448;2022-10-23T05:27:17;97905.00;;;19.04;60.89
28267;BME280;15525;45.568;5.448;2022-10-23T05:29:43;97916.78;;;19.08;60.48
28267;BME280;15525;45.568;5.448;2022-10-23T05:32:09;97909.28;;;19.05;60.38
28267;BME280;15525;45.568;5.448;2022-10-23T05:34:37;97908.97;;;19.06;60.69
28267;BME280;15525;45.568;5.448;2022-10-23T05:37:04;97901.03;;;19.01;60.98
28267;BME280;15525;45.568;5.448;2022-10-23T05:39:31;97898.75;;;19.03;60.75
28267;BME280;15525;45.568;5.448;2022-10-23T05:41:56;97894.84;;;18.92;61.10
28267;BME280;15525;45.568;5.448;2022-10-23T05:44:22;97891.44;;;18.95;60.92
28267;BME280;15525;45.568;5.448;2022-10-23T05:46:47;97898.13;;;19.06;60.93
28267;BME280;15525;45.568;5.448;2022-10-23T05:49:13;97895.59;;;19.01;61.00
28267;BME280;15525;45.568;5.448;2022-10-23T05:51:39;97905.78;;;19.04;61.11
28267;BME280;15525;45.568;5.448;2022-10-23T05:54:05;97912.44;;;19.15;60.76
28267;BME280;15525;45.568;5.448;2022-10-23T05:56:33;97907.16;;;19.19;60.78
28267;BME280;15525;45.568;5.448;2022-10-23T05:58:59;97906.34;;;19.18;60.69
28267;BME280;15525;45.568;5.448;2022-10-23T06:01:24;97894.22;;;19.24;60.52
28267;BME280;15525;45.568;5.448;2022-10-23T06:03:49;97902.19;;;19.29;60.54
28267;BME280;15525;45.568;5.448;2022-10-23T06:06:15;97893.38;;;19.32;60.56
28267;BME280;15525;45.568;5.448;2022-10-23T06:08:41;97897.81;;;19.37;60.37
28267;BME280;15525;45.568;5.448;2022-10-23T06:11:07;97890.84;;;19.27;60.46
28267;BME280;15525;45.568;5.448;2022-10-23T06:13:33;97898.94;;;19.36;60.42
28267;BME280;15525;45.568;5.448;2022-10-23T06:15:59;97905.81;;;19.33;60.42
28267;BME280;15525;45.568;5.448;2022-10-23T06:18:24;97880.59;;;19.33;60.49
28267;BME280;15525;45.568;5.448;2022-10-23T06:20:49;97888.22;;;19.39;60.50
28267;BME280;15525;45.568;5.448;2022-10-23T06:23:15;97886.97;;;19.37;60.53
28267;BME280;15525;45.568;5.448;2022-10-23T06:25:40;97897.50;;;19.38;60.51
28267;BME280;15525;45.568;5.448;2022-10-23T06:28:05;97889.56;;;19.25;61.08
28267;BME280;15525;45.568;5.448;2022-10-23T06:30:31;97898.47;;;19.34;60.62
28267;BME280;15525;45.568;5.448;2022-10-23T06:32:56;97904.31;;;19.44;60.58
28267;BME280;15525;45.568;5.448;2022-10-23T06:35:21;97887.41;;;19.39;60.43
28267;BME280;15525;45.568;5.448;2022-10-23T06:37:47;97882.47;;;19.41;60.44
28267;BME280;15525;45.568;5.448;2022-10-23T06:40:12;97892.78;;;19.47;60.58
28267;BME280;15525;45.568;5.448;2022-10-23T06:42:38;97901.41;;;19.49;60.58
28267;BME280;15525;45.568;5.448;2022-10-23T06:45:03;97889.88;;;19.52;60.41
28267;BME280;15525;45.568;5.448;2022-10-23T06:47:29;97910.97;;;19.55;60.23
28267;BME280;15525;45.568;5.448;2022-10-23T06:49:54;97906.31;;;19.56;60.39
28267;BME280;15525;45.568;5.448;2022-10-23T06:52:20;97897.56;;;19.50;60.37
28267;BME280;15525;45.568;5.448;2022-10-23T06:54:45;97888.66;;;19.41;60.70
28267;BME280;15525;45.568;5.448;2022-10-23T06:57:10;97894.09;;;19.41;60.82
28267;BME280;15525;45.568;5.448;2022-10-23T06:59:36;97890.81;;;19.36;60.53
28267;BME280;15525;45.568;5.448;2022-10-23T07:02:01;97893.44;;;19.44;60.77
28267;BME280;15525;45.568;5.448;2022-10-23T07:04:27;97899.00;;;19.48;60.68
28267;BME280;15525;45.568;5.448;2022-10-23T07:06:55;97875.91;;;19.42;60.94
28267;BME280;15525;45.568;5.448;2022-10-23T07:09:23;97872.13;;;19.34;60.93
28267;BME280;15525;45.568;5.448;2022-10-23T07:11:49;97862.22;;;19.30;60.88
28267;BME280;15525;45.568;5.448;2022-10-23T07:14:14;97870.94;;;19.44;60.78
28267;BME280;15525;45.568;5.448;2022-10-23T07:16:39;97879.16;;;19.56;60.55
28267;BME280;15525;45.568;5.448;2022-10-23T07:19:05;97875.19;;;19.53;60.57
28267;BME280;15525;45.568;5.448;2022-10-23T07:21:33;97885.50;;;19.60;60.27
28267;BME280;15525;45.568;5.448;2022-10-23T07:23:59;97874.19;;;19.58;60.45
28267;BME280;15525;45.568;5.448;2022-10-23T07:26:25;97892.28;;;19.74;60.20
28267;BME280;15525;45.568;5.448;2022-10-23T07:28:51;97885.22;;;19.73;59.96
28267;BME280;15525;45.568;5.448;2022-10-23T07:31:20;97887.56;;;19.83;59.98
28267;BME280;15525;45.568;5.448;2022-10-23T07:33:46;97877.03;;;19.82;59.97
28267;BME280;15525;45.568;5.448;2022-10-23T07:36:12;97870.66;;;19.78;60.28
28267;BME280;15525;45.568;5.448;2022-10-23T07:38:37;97871.59;;;19.82;60.22
28267;BME280;15525;45.568;5.448;2022-10-23T07:41:03;97875.09;;;19.82;60.20
28267;BME280;15525;45.568;5.448;2022-10-23T07:43:29;97863.38;;;19.90;60.10
28267;BME280;15525;45.568;5.448;2022-10-23T07:45:55;97863.63;;;19.97;59.81
28267;BME280;15525;45.568;5.448;2022-10-23T07:48:20;97864.63;;;20.13;59.76
28267;BME280;15525;45.568;5.448;2022-10-23T07:50:48;97867.59;;;20.20;59.48
28267;BME280;15525;45.568;5.448;2022-10-23T07:53:19;97877.06;;;20.14;59.54
28267;BME280;15525;45.568;5.448;2022-10-23T07:55:59;97888.22;;;20.21;59.65
28267;BME280;15525;45.568;5.448;2022-10-23T07:58:26;97889.91;;;20.26;59.54
28267;BME280;15525;45.568;5.448;2022-10-23T08:01:00;97877.22;;;20.30;59.67
28267;BME280;15525;45.568;5.448;2022-10-23T08:03:29;97882.13;;;20.36;59.25
28267;BME280;15525;45.568;5.448;2022-10-23T08:05:54;97890.16;;;20.33;59.25
28267;BME280;15525;45.568;5.448;2022-10-23T08:08:21;97874.13;;;20.40;59.21
28267;BME280;15525;45.568;5.448;2022-10-23T08:10:48;97886.13;;;20.51;58.98
28267;BME280;15525;45.568;5.448;2022-10-23T08:13:14;97891.91;;;20.49;59.13
28267;BME280;15525;45.568;5.448;2022-10-23T08:15:41;97896.00;;;20.55;59.27
28267;BME280;15525;45.568;5.448;2022-10-23T08:18:07;97911.44;;;20.63;59.08
28267;BME280;15525;45.568;5.448;2022-10-23T08:20:39;97906.00;;;20.63;59.34
28267;BME280;15525;45.568;5.448;2022-10-23T08:23:06;97901.69;;;20.62;59.54
28267;BME280;15525;45.568;5.448;2022-10-23T08:25:32;97911.91;;;20.65;59.21
28267;BME280;15525;45.568;5.448;2022-10-23T08:27:57;97900.56;;;20.63;59.23
28267;BME280;15525;45.568;5.448;2022-10-23T08:30:22;97903.53;;;20.70;59.20
28267;BME280;15525;45.568;5.448;2022-10-23T08:32:48;97904.84;;;20.64;59.28
28267;BME280;15525;45.568;5.448;2022-10-23T08:35:13;97899.88;;;20.66;59.33
28267;BME280;15525;45.568;5.448;2022-10-23T08:37:38;97890.69;;;20.59;59.38
28267;BME280;15525;45.568;5.448;2022-10-23T08:40:04;97874.25;;;20.55;59.55
28267;BME280;15525;45.568;5.448;2022-10-23T08:42:30;97864.50;;;20.42;60.12
28267;BME280;15525;45.568;5.448;2022-10-23T08:45:25;97873.00;;;20.53;59.66
28267;BME280;15525;45.568;5.448;2022-10-23T08:47:57;97888.91;;;20.30;59.96
28267;BME280;15525;45.568;5.448;2022-10-23T08:50:35;97886.69;;;20.44;59.91
28267;BME280;15525;45.568;5.448;2022-10-23T08:53:10;97868.13;;;20.58;59.29
28267;BME280;15525;45.568;5.448;2022-10-23T08:55:44;97857.72;;;20.60;59.57
28267;BME280;15525;45.568;5.448;2022-10-23T08:58:17;97840.50;;;20.56;59.42
28267;BME280;15525;45.568;5.448;2022-10-23T09:00:50;97856.56;;;20.49;59.31
28267;BME280;15525;45.568;5.448;2022-10-23T09:03:16;97868.56;;;20.48;59.62
28267;BME280;15525;45.568;5.448;2022-10-23T09:06:12;97874.25;;;20.55;59.44
28267;BME280;15525;45.568;5.448;2022-10-23T09:08:46;97871.06;;;20.53;59.24
28267;BME280;15525;45.568;5.448;2022-10-23T09:19:18;97878.00;;;20.75;59.16
28267;BME280;15525;45.568;5.448;2022-10-23T09:21:47;97889.00;;;20.78;58.96
28267;BME280;15525;45.568;5.448;2022-10-23T09:24:16;97882.13;;;20.81;58.73
28267;BME280;15525;45.568;5.448;2022-10-23T09:26:46;97874.03;;;20.72;59.12
28267;BME280;15525;45.568;5.448;2022-10-23T09:31:53;97899.88;;;20.78;58.84
28267;BME280;15525;45.568;5.448;2022-10-23T09:34:24;97895.72;;;20.81;58.67
28267;BME280;15525;45.568;5.448;2022-10-23T09:36:57;97886.00;;;20.92;58.22
28267;BME280;15525;45.568;5.448;2022-10-23T09:39:29;97872.75;;;21.03;58.36
28267;BME280;15525;45.568;5.448;2022-10-23T09:41:56;97873.84;;;21.02;57.99
28267;BME280;15525;45.568;5.448;2022-10-23T09:44:27;97860.84;;;20.95;58.04
28267;BME280;15525;45.568;5.448;2022-10-23T09:46:54;97859.22;;;20.94;57.61
28267;BME280;15525;45.568;5.448;2022-10-23T09:49:23;97872.41;;;21.04;57.89
28267;BME280;15525;45.568;5.448;2022-10-23T09:54:37;97878.72;;;21.20;57.67
28267;BME280;15525;45.568;5.448;2022-10-23T09:59:37;97870.69;;;21.12;57.57
28267;BME280;15525;45.568;5.448;2022-10-23T10:02:02;97872.59;;;21.35;57.37
28267;BME280;15525;45.568;5.448;2022-10-23T10:04:37;97858.84;;;21.44;57.27
28267;BME280;15525;45.568;5.448;2022-10-23T10:07:11;97863.63;;;21.35;57.38
28267;BME280;15525;45.568;5.448;2022-10-23T10:09:40;97862.69;;;21.55;57.15
28267;BME280;15525;45.568;5.448;2022-10-23T10:14:52;97865.59;;;21.74;57.22
28267;BME280;15525;45.568;5.448;2022-10-23T10:17:28;97885.09;;;21.88;56.69
28267;BME280;15525;45.568;5.448;2022-10-23T10:20:05;97877.22;;;21.98;56.60
28267;BME280;15525;45.568;5.448;2022-10-23T10:22:56;97862.50;;;22.15;56.08
28267;BME280;15525;45.568;5.448;2022-10-23T10:28:14;97873.97;;;22.79;55.08
28267;BME280;15525;45.568;5.448;2022-10-23T10:31:08;97867.03;;;23.47;52.26
28267;BME280;15525;45.568;5.448;2022-10-23T10:45:25;97884.97;;;24.77;49.60
28267;BME280;15525;45.568;5.448;2022-10-23T10:50:53;97901.03;;;24.79;49.26
28267;BME280;15525;45.568;5.448;2022-10-23T10:53:46;97897.50;;;25.01;48.91
28267;BME280;15525;45.568;5.448;2022-10-23T10:56:15;97887.41;;;25.05;48.81
28267;BME280;15525;45.568;5.448;2022-10-23T10:58:51;97875.59;;;25.01;48.69
28267;BME280;15525;45.568;5.448;2022-10-23T11:06:59;97882.69;;;25.54;47.86
28267;BME280;15525;45.568;5.448;2022-10-23T11:09:27;97871.09;;;25.64;47.49
28267;BME280;15525;45.568;5.448;2022-10-23T11:11:54;97861.47;;;25.77;47.25
28267;BME280;15525;45.568;5.448;2022-10-23T11:14:25;97858.72;;;25.77;46.93
28267;BME280;15525;45.568;5.448;2022-10-23T11:16:56;97852.69;;;25.64;47.34
28267;BME280;15525;45.568;5.448;2022-10-23T11:21:59;97853.38;;;25.87;46.99
28267;BME280;15525;45.568;5.448;2022-10-23T11:35:30;97851.69;;;26.82;45.32
28267;BME280;15525;45.568;5.448;2022-10-23T11:38:27;97847.59;;;26.62;45.27
28267;BME280;15525;45.568;5.448;2022-10-23T11:40:57;97834.78;;;26.40;45.59
28267;BME280;15525;45.568;5.448;2022-10-23T11:43:46;97832.94;;;26.51;44.91
28267;BME280;15525;45.568;5.448;2022-10-23T11:46:35;97841.78;;;26.70;45.20
28267;BME280;15525;45.568;5.448;2022-10-23T11:49:00;97822.53;;;26.67;45.24
28267;BME280;15525;45.568;5.448;2022-10-23T11:51:33;97825.28;;;26.70;45.15
28267;BME280;15525;45.568;5.448;2022-10-23T11:59:18;97811.59;;;27.24;44.38
28267;BME280;15525;45.568;5.448;2022-10-23T12:01:46;97820.16;;;27.16;44.34
28267;BME280;15525;45.568;5.448;2022-10-23T12:06:44;97825.44;;;27.42;43.93
28267;BME280;15525;45.568;5.448;2022-10-23T12:09:22;97823.47;;;27.35;43.95
28267;BME280;15525;45.568;5.448;2022-10-23T12:14:30;97823.66;;;27.74;43.62
28267;BME280;15525;45.568;5.448;2022-10-23T12:16:55;97810.50;;;27.36;44.04
28267;BME280;15525;45.568;5.448;2022-10-23T12:19:23;97807.16;;;27.74;43.63
28267;BME280;15525;45.568;5.448;2022-10-23T12:21:51;97803.22;;;27.71;43.66
28267;BME280;15525;45.568;5.448;2022-10-23T12:24:33;97800.22;;;27.97;43.11
28267;BME280;15525;45.568;5.448;2022-10-23T12:27:13;97801.56;;;27.53;43.38
28267;BME280;15525;45.568;5.448;2022-10-23T12:29:58;97794.19;;;27.67;43.47
28267;BME280;15525;45.568;5.448;2022-10-23T12:38:21;97796.25;;;27.88;42.49
28267;BME280;15525;45.568;5.448;2022-10-23T12:40:59;97784.75;;;27.75;42.71
28267;BME280;15525;45.568;5.448;2022-10-23T12:43:28;97783.44;;;27.48;43.02
28267;BME280;15525;45.568;5.448;2022-10-23T12:45:55;97770.19;;;27.64;43.38
28267;BME280;15525;45.568;5.448;2022-10-23T12:48:23;97764.00;;;27.92;42.77
28267;BME280;15525;45.568;5.448;2022-10-23T12:50:53;97766.75;;;27.81;42.60
28267;BME280;15525;45.568;5.448;2022-10-23T12:53:20;97769.53;;;28.06;42.45
28267;BME280;15525;45.568;5.448;2022-10-23T12:55:57;97768.75;;;27.98;42.13
28267;BME280;15525;45.568;5.448;2022-10-23T12:58:26;97753.81;;;27.99;42.35
28267;BME280;15525;45.568;5.448;2022-10-23T13:00:56;97757.78;;;28.16;41.81
28267;BME280;15525;45.568;5.448;2022-10-23T13:03:24;97754.25;;;28.15;42.18
28267;BME280;15525;45.568;5.448;2022-10-23T13:05:51;97751.91;;;28.31;42.19
28267;BME280;15525;45.568;5.448;2022-10-23T13:08:19;97735.03;;;28.40;41.86
28267;BME280;15525;45.568;5.448;2022-10-23T13:10:46;97729.09;;;28.31;41.54
28267;BME280;15525;45.568;5.448;2022-10-23T13:13:13;97734.22;;;28.29;41.86
28267;BME280;15525;45.568;5.448;2022-10-23T13:15:42;97723.19;;;28.18;41.80
28267;BME280;15525;45.568;5.448;2022-10-23T13:18:10;97721.16;;;27.94;41.44
28267;BME280;15525;45.568;5.448;2022-10-23T13:38:41;97730.22;;;27.91;41.72
28267;BME280;15525;45.568;5.448;2022-10-23T13:41:13;97736.88;;;27.83;42.02
28267;BME280;15525;45.568;5.448;2022-10-23T13:43:39;97738.00;;;27.79;42.06
28267;BME280;15525;45.568;5.448;2022-10-23T13:46:05;97733.66;;;27.71;42.13
28267;BME280;15525;45.568;5.448;2022-10-23T13:48:37;97747.50;;;27.88;41.88
28267;BME280;15525;45.568;5.448;2022-10-23T13:51:11;97742.81;;;28.03;41.67
28267;BME280;15525;45.568;5.448;2022-10-23T13:53:37;97746.75;;;28.02;41.74
28267;BME280;15525;45.568;5.448;2022-10-23T13:56:03;97750.66;;;27.94;41.98
28267;BME280;15525;45.568;5.448;2022-10-23T13:58:28;97741.06;;;27.53;42.26
28267;BME280;15525;45.568;5.448;2022-10-23T14:00:53;97744.50;;;27.36;42.44
28267;BME280;15525;45.568;5.448;2022-10-23T14:03:19;97758.31;;;27.46;42.48
28267;BME280;15525;45.568;5.448;2022-10-23T14:05:49;97737.59;;;27.73;42.00
28267;BME280;15525;45.568;5.448;2022-10-23T14:08:14;97737.53;;;27.59;42.13
28267;BME280;15525;45.568;5.448;2022-10-23T14:10:39;97761.50;;;27.52;42.36
28267;BME280;15525;45.568;5.448;2022-10-23T14:13:05;97740.00;;;27.07;42.93
28267;BME280;15525;45.568;5.448;2022-10-23T14:15:30;97748.00;;;27.26;42.89
28267;BME280;15525;45.568;5.448;2022-10-23T14:17:56;97750.22;;;27.10;43.36
28267;BME280;15525;45.568;5.448;2022-10-23T14:20:21;97753.50;;;27.26;43.00
28267;BME280;15525;45.568;5.448;2022-10-23T14:22:47;97778.25;;;27.29;43.18
28267;BME280;15525;45.568;5.448;2022-10-23T14:25:12;97781.75;;;27.23;43.40
28267;BME280;15525;45.568;5.448;2022-10-23T14:27:37;97771.44;;;27.13;43.54
28267;BME280;15525;45.568;5.448;2022-10-23T14:30:03;97772.91;;;26.93;43.94
28267;BME280;15525;45.568;5.448;2022-10-23T14:32:29;97770.44;;;26.77;44.34
28267;BME280;15525;45.568;5.448;2022-10-23T14:34:55;97774.47;;;26.94;44.19
28267;BME280;15525;45.568;5.448;2022-10-23T14:37:20;97776.81;;;26.92;44.28
28267;BME280;15525;45.568;5.448;2022-10-23T14:39:46;97787.25;;;26.72;44.71
28267;BME280;15525;45.568;5.448;2022-10-23T14:42:12;97795.91;;;26.78;44.72
28267;BME280;15525;45.568;5.448;2022-10-23T14:44:37;97794.06;;;26.89;44.53
28267;BME280;15525;45.568;5.448;2022-10-23T14:47:03;97801.97;;;26.54;45.26
28267;BME280;15525;45.568;5.448;2022-10-23T14:49:29;97793.34;;;26.52;45.26
28267;BME280;15525;45.568;5.448;2022-10-23T14:51:54;97783.16;;;26.56;45.31
28267;BME280;15525;45.568;5.448;2022-10-23T14:54:20;97812.38;;;26.34;45.77
28267;BME280;15525;45.568;5.448;2022-10-23T14:56:45;97815.56;;;26.40;45.75
28267;BME280;15525;45.568;5.448;2022-10-23T14:59:11;97811.69;;;26.44;45.67
28267;BME280;15525;45.568;5.448;2022-10-23T15:01:39;97809.88;;;26.59;45.33
28267;BME280;15525;45.568;5.448;2022-10-23T15:04:05;97815.38;;;26.59;45.22
28267;BME280;15525;45.568;5.448;2022-10-23T15:06:32;97804.13;;;26.71;45.20
28267;BME280;15525;45.568;5.448;2022-10-23T15:08:58;97810.44;;;26.75;45.24